Time;durP1;ratioP1;P1;durP2;ratioP2;P2;SDS_P1;SDS_P2;PMS_P1;PMS_P2;Temp;Humidity;BMP_temperature;BMP_pressure;BME280_temperature;BME280_humidity;BME280_pressure;Samples;Min_cycle;Max_cycle;Signal;HPM_P1;HPM_P2
2023/10/22 00:01:13;;;;;;;6.85;4.20;;;20.10;99.90;;;;;;5090613;28;20466;-78
2023/10/22 00:03:41;;;;;;;11.30;4.88;;;20.00;99.90;;;;;;5090111;28;20134;-80
2023/10/22 00:06:08;;;;;;;9.10;4.53;;;20.00;99.90;;;;;;5087668;28;20447;-82
2023/10/22 00:08:35;;;;;;;8.20;3.53;;;20.00;99.90;;;;;;5090169;28;20429;-78
2023/10/22 00:11:03;;;;;;;10.35;4.03;;;20.00;99.90;;;;;;5076514;28;20495;-81
2023/10/22 00:13:30;;;;;;;10.30;4.10;;;19.90;99.90;;;;;;5089887;28;20051;-74
2023/10/22 00:15:58;;;;;;;10.02;3.72;;;19.90;99.90;;;;;;5090732;28;20037;-79
2023/10/22 00:18:26;;;;;;;8.23;3.65;;;19.80;99.90;;;;;;5071963;28;20055;-81
2023/10/22 00:20:53;;;;;;;6.10;3.47;;;19.80;99.90;;;;;;5090436;28;20040;-82
2023/10/22 00:23:20;;;;;;;11.55;3.63;;;19.70;99.90;;;;;;5089849;28;20494;-79
2023/10/22 00:25:48;;;;;;;8.73;3.72;;;19.70;99.90;;;;;;5090709;28;20411;-81
2023/10/22 00:28:15;;;;;;;11.38;4.60;;;19.60;99.90;;;;;;5071459;28;20036;-80
2023/10/22 00:30:42;;;;;;;5.47;3.42;;;19.60;99.90;;;;;;5090384;28;20376;-79
2023/10/22 00:33:09;;;;;;;8.52;3.58;;;19.60;99.90;;;;;;5089648;28;20204;-81
2023/10/22 00:35:37;;;;;;;7.63;4.00;;;19.50;99.90;;;;;;5084926;28;20039;-81
2023/10/22 00:38:04;;;;;;;5.78;3.30;;;19.50;99.90;;;;;;5089877;28;20044;-80
2023/10/22 00:40:31;;;;;;;7.63;2.95;;;19.50;99.90;;;;;;5085716;28;20046;-78
2023/10/22 00:43:05;;;;;;;6.38;2.92;;;19.60;99.90;;;;;;5066297;28;20052;-80
2023/10/22 00:45:37;;;;;;;9.10;3.30;;;19.50;99.90;;;;;;5080186;28;20067;-80
2023/10/22 00:48:06;;;;;;;9.65;3.15;;;19.40;99.90;;;;;;5087291;28;20082;-83
2023/10/22 00:50:34;;;;;;;6.38;3.00;;;19.40;99.90;;;;;;5084909;28;20044;-79
2023/10/22 00:53:03;;;;;;;6.88;3.35;;;19.40;99.90;;;;;;5087562;28;20036;-77
2023/10/22 00:55:30;;;;;;;8.23;3.47;;;19.40;99.90;;;;;;5084209;28;20066;-81
2023/10/22 00:57:58;;;;;;;4.68;2.70;;;19.30;99.90;;;;;;5085975;28;20066;-80
2023/10/22 01:00:45;;;;;;;6.10;2.97;;;19.30;99.90;;;;;;5095498;28;20170;-77
2023/10/22 01:03:13;;;;;;;6.23;3.30;;;19.30;99.90;;;;;;5097375;28;20036;-80
2023/10/22 01:05:40;;;;;;;5.63;2.90;;;19.30;99.90;;;;;;5080077;28;20028;-78
2023/10/22 01:08:09;;;;;;;6.90;3.35;;;19.20;99.90;;;;;;5087854;28;20040;-78
2023/10/22 01:10:36;;;;;;;5.93;2.90;;;19.20;99.90;;;;;;5089611;28;20040;-78
2023/10/22 01:13:03;;;;;;;6.18;2.80;;;19.20;99.90;;;;;;5089143;28;20060;-76
2023/10/22 01:15:31;;;;;;;5.57;3.03;;;19.30;99.90;;;;;;5088333;28;20134;-78
2023/10/22 01:17:58;;;;;;;3.97;3.13;;;19.20;99.90;;;;;;5088782;28;20040;-77
2023/10/22 01:20:25;;;;;;;11.00;4.63;;;19.20;99.90;;;;;;5084847;28;20210;-77
2023/10/22 01:22:52;;;;;;;6.20;2.95;;;19.30;99.90;;;;;;5087667;28;20040;-78
2023/10/22 01:25:20;;;;;;;7.22;2.95;;;19.30;99.90;;;;;;5085347;28;20036;-78
2023/10/22 01:27:47;;;;;;;7.82;3.10;;;19.20;99.90;;;;;;5086408;28;20040;-77
2023/10/22 01:30:14;;;;;;;8.63;3.00;;;19.20;99.90;;;;;;5088517;28;20028;-77
2023/10/22 01:32:41;;;;;;;6.97;2.83;;;19.10;99.90;;;;;;5089411;28;20047;-78
2023/10/22 01:35:10;;;;;;;7.15;3.03;;;18.90;99.90;;;;;;5088841;28;20467;-77
2023/10/22 01:37:37;;;;;;;7.32;2.70;;;18.90;99.90;;;;;;5089426;28;20048;-77
2023/10/22 01:40:05;;;;;;;7.85;3.17;;;18.90;99.90;;;;;;5088838;28;20116;-79
2023/10/22 01:42:32;;;;;;;7.35;3.50;;;19.00;99.90;;;;;;5085128;28;20377;-79
2023/10/22 01:45:00;;;;;;;7.20;3.20;;;19.10;99.90;;;;;;5088607;28;20557;-81
2023/10/22 01:47:27;;;;;;;6.25;2.92;;;19.00;99.90;;;;;;5074892;28;20117;-78
2023/10/22 01:49:55;;;;;;;7.35;3.30;;;19.10;99.90;;;;;;5091596;28;20471;-80
2023/10/22 01:52:22;;;;;;;7.18;3.20;;;19.10;99.90;;;;;;5092117;28;20032;-80
2023/10/22 01:54:50;;;;;;;10.65;3.88;;;19.10;99.90;;;;;;5093180;28;20046;-81
2023/10/22 01:57:17;;;;;;;11.40;4.45;;;19.10;99.90;;;;;;5092227;28;20042;-80
2023/10/22 01:59:44;;;;;;;5.82;3.70;;;19.20;99.90;;;;;;5092712;28;20475;-80
2023/10/22 02:02:11;;;;;;;9.40;4.20;;;19.20;99.90;;;;;;5092456;28;20048;-79
2023/10/22 02:04:39;;;;;;;8.63;4.13;;;19.10;99.90;;;;;;5091773;28;20044;-81
2023/10/22 02:07:06;;;;;;;9.70;4.53;;;19.10;99.90;;;;;;5088659;28;20487;-79
2023/10/22 02:09:33;;;;;;;11.20;4.40;;;18.90;99.90;;;;;;5088421;28;20414;-81
2023/10/22 02:12:00;;;;;;;11.50;6.28;;;18.80;99.90;;;;;;5092335;28;20028;-80
2023/10/22 02:14:28;;;;;;;13.25;5.75;;;18.90;99.90;;;;;;5092226;28;20572;-78
2023/10/22 02:16:55;;;;;;;13.82;6.15;;;19.00;99.90;;;;;;5099640;28;20043;-79
2023/10/22 02:19:22;;;;;;;10.95;6.03;;;18.80;99.90;;;;;;5091497;28;20028;-76
2023/10/22 02:21:50;;;;;;;9.70;6.10;;;18.70;99.90;;;;;;5091906;28;20031;-80
2023/10/22 02:24:17;;;;;;;9.35;5.80;;;18.80;99.90;;;;;;5091880;28;20044;-78
2023/10/22 02:26:45;;;;;;;12.88;6.18;;;18.80;99.90;;;;;;5076842;28;20101;-75
2023/10/22 02:29:15;;;;;;;14.35;6.45;;;18.80;99.90;;;;;;5089900;28;20039;-76
2023/10/22 02:31:42;;;;;;;12.23;7.22;;;18.70;99.90;;;;;;5092252;28;20589;-78
2023/10/22 02:34:10;;;;;;;10.48;5.80;;;18.70;99.90;;;;;;5073522;28;20042;-76
2023/10/22 02:36:37;;;;;;;14.57;6.25;;;18.70;99.90;;;;;;5091660;28;20040;-78
2023/10/22 02:39:04;;;;;;;12.95;6.13;;;18.80;99.90;;;;;;5087921;28;20040;-77
2023/10/22 02:41:32;;;;;;;13.00;6.28;;;18.80;99.90;;;;;;5088882;28;20040;-76
2023/10/22 02:43:59;;;;;;;12.93;5.97;;;18.80;99.90;;;;;;5088441;28;20058;-77
2023/10/22 02:46:26;;;;;;;12.75;6.20;;;18.70;99.90;;;;;;5090930;28;20591;-80
2023/10/22 02:48:53;;;;;;;13.38;5.80;;;18.50;99.90;;;;;;5091831;28;20116;-78
2023/10/22 02:51:22;;;;;;;12.07;6.32;;;18.50;99.90;;;;;;5090964;28;20032;-76
2023/10/22 02:53:49;;;;;;;11.80;5.57;;;18.60;99.90;;;;;;5091501;28;20055;-76
2023/10/22 02:56:16;;;;;;;12.27;5.72;;;18.50;99.90;;;;;;5091328;28;20047;-77
2023/10/22 02:58:43;;;;;;;12.07;5.85;;;18.50;99.90;;;;;;5090686;28;20052;-80
2023/10/22 03:01:12;;;;;;;13.48;6.40;;;18.40;99.90;;;;;;5091694;28;20488;-79
2023/10/22 03:03:39;;;;;;;9.65;5.63;;;18.40;99.90;;;;;;5091526;28;20048;-75
2023/10/22 03:06:25;;;;;;;11.13;5.72;;;18.40;99.90;;;;;;5090890;28;20622;-77
2023/10/22 03:08:52;;;;;;;16.75;6.00;;;18.50;99.90;;;;;;5073422;28;20040;-77
2023/10/22 03:11:20;;;;;;;17.23;6.32;;;18.40;99.90;;;;;;5089721;28;20040;-78
2023/10/22 03:13:50;;;;;;;11.20;5.90;;;18.50;99.90;;;;;;5083543;28;20048;-79
2023/10/22 03:16:19;;;;;;;9.48;5.85;;;18.50;99.90;;;;;;5078717;28;20040;-79
2023/10/22 03:18:47;;;;;;;11.50;6.22;;;18.60;99.90;;;;;;5087219;28;20115;-78
2023/10/22 03:21:16;;;;;;;15.57;7.00;;;18.40;99.90;;;;;;5088833;28;20497;-79
2023/10/22 03:23:44;;;;;;;10.63;7.15;;;18.20;99.90;;;;;;5090718;28;20039;-78
2023/10/22 03:26:14;;;;;;;8.15;5.03;;;18.20;99.90;;;;;;5073003;28;20036;-76
2023/10/22 03:28:43;;;;;;;10.57;6.50;;;18.20;99.90;;;;;;5086239;28;20044;-79
2023/10/22 03:31:11;;;;;;;13.77;4.97;;;18.20;99.90;;;;;;5086618;28;20118;-78
2023/10/22 03:33:38;;;;;;;11.43;4.53;;;18.20;99.90;;;;;;5072689;28;20093;-78
2023/10/22 03:36:06;;;;;;;7.10;4.47;;;18.20;99.90;;;;;;5086867;28;20036;-79
2023/10/22 03:38:33;;;;;;;8.00;4.53;;;17.70;99.90;;;;;;5090905;28;20047;-78
2023/10/22 03:41:02;;;;;;;7.72;4.57;;;17.60;99.90;;;;;;5086647;28;20036;-77
2023/10/22 03:43:30;;;;;;;10.00;5.13;;;17.60;99.90;;;;;;5089824;28;20495;-78
2023/10/22 03:45:58;;;;;;;9.95;5.25;;;17.70;99.90;;;;;;5072672;28;20127;-80
2023/10/22 03:48:28;;;;;;;8.27;5.25;;;17.80;99.90;;;;;;5090320;28;20040;-77
2023/10/22 03:50:55;;;;;;;8.90;5.80;;;17.90;99.90;;;;;;5081552;28;20040;-80
2023/10/22 03:53:23;;;;;;;11.18;6.22;;;17.80;99.90;;;;;;5089930;28;20040;-77
2023/10/22 03:55:51;;;;;;;8.63;5.20;;;17.80;99.90;;;;;;5089796;28;20051;-78
2023/10/22 03:58:19;;;;;;;12.48;5.30;;;17.80;99.90;;;;;;5072581;28;20097;-77
2023/10/22 04:00:46;;;;;;;12.25;5.57;;;17.80;99.90;;;;;;5090415;28;20336;-76
2023/10/22 04:03:13;;;;;;;11.38;5.57;;;17.50;99.90;;;;;;5089895;28;20119;-77
2023/10/22 04:05:40;;;;;;;10.02;5.28;;;17.50;99.90;;;;;;5090429;28;20028;-78
2023/10/22 04:08:08;;;;;;;12.20;6.22;;;17.50;99.90;;;;;;5064789;28;20102;-76
2023/10/22 04:10:35;;;;;;;7.53;5.60;;;17.50;99.90;;;;;;5088646;28;20054;-76
2023/10/22 04:13:02;;;;;;;10.43;6.10;;;17.50;99.90;;;;;;5090227;28;20036;-77
2023/10/22 04:15:37;;;;;;;9.95;5.82;;;17.50;99.90;;;;;;5068035;28;20040;-75
2023/10/22 04:18:04;;;;;;;10.18;5.72;;;17.50;99.90;;;;;;5090337;28;20044;-77
2023/10/22 04:20:33;;;;;;;13.52;7.03;;;17.50;99.90;;;;;;5085923;28;20039;-76
2023/10/22 04:23:00;;;;;;;14.73;6.70;;;17.50;99.90;;;;;;5085548;28;20063;-78
2023/10/22 04:25:28;;;;;;;16.55;6.75;;;17.60;99.90;;;;;;5089690;28;20043;-79
2023/10/22 04:27:55;;;;;;;11.35;6.43;;;17.50;99.90;;;;;;5089796;28;20047;-79
2023/10/22 04:30:22;;;;;;;10.18;6.20;;;17.00;99.90;;;;;;5089316;28;20047;-79
2023/10/22 04:32:49;;;;;;;14.15;7.13;;;16.80;99.90;;;;;;5090243;28;20470;-80
2023/10/22 04:35:18;;;;;;;14.35;7.40;;;16.80;99.90;;;;;;5089092;28;20494;-78
2023/10/22 04:37:45;;;;;;;18.33;8.55;;;16.80;99.90;;;;;;5089830;28;20089;-78
2023/10/22 04:40:12;;;;;;;13.13;7.35;;;16.70;99.90;;;;;;5086104;28;20032;-78
2023/10/22 04:42:40;;;;;;;16.13;8.07;;;16.90;99.90;;;;;;5089779;28;20046;-78
2023/10/22 04:45:07;;;;;;;16.33;9.38;;;17.00;99.90;;;;;;5071397;28;20547;-78
2023/10/22 04:47:35;;;;;;;12.43;8.10;;;17.20;99.90;;;;;;5085502;28;20086;-76
2023/10/22 04:50:02;;;;;;;11.15;7.55;;;17.20;99.90;;;;;;5089751;28;20495;-78
2023/10/22 04:52:33;;;;;;;14.18;7.72;;;17.20;99.90;;;;;;5089271;28;20036;-78
2023/10/22 04:55:01;;;;;;;12.60;7.70;;;17.10;99.90;;;;;;5090023;28;20419;-77
2023/10/22 04:57:29;;;;;;;12.25;7.20;;;17.20;99.90;;;;;;5089011;28;20040;-79
2023/10/22 04:59:57;;;;;;;16.00;8.40;;;17.20;99.90;;;;;;5089568;28;20035;-78
2023/10/22 05:02:24;;;;;;;17.00;8.13;;;17.20;99.90;;;;;;5088959;28;20637;-79
2023/10/22 05:04:52;;;;;;;12.88;7.60;;;17.00;99.90;;;;;;5089622;28;20429;-80
2023/10/22 05:07:19;;;;;;;17.02;9.50;;;16.70;99.90;;;;;;5088201;28;20383;-79
2023/10/22 05:09:46;;;;;;;13.75;8.43;;;16.70;99.90;;;;;;5089333;28;20036;-80
2023/10/22 05:12:13;;;;;;;16.85;8.48;;;16.80;99.90;;;;;;5088733;28;20107;-79
2023/10/22 05:14:41;;;;;;;12.18;7.80;;;16.70;99.90;;;;;;5089756;28;20443;-80
2023/10/22 05:17:08;;;;;;;16.65;8.20;;;16.80;99.90;;;;;;5088651;28;20093;-79
2023/10/22 05:19:35;;;;;;;12.70;7.88;;;17.00;99.90;;;;;;5081297;28;20037;-76
2023/10/22 05:22:05;;;;;;;16.73;8.88;;;16.90;99.90;;;;;;5092042;28;20047;-78
2023/10/22 05:24:33;;;;;;;19.73;9.07;;;16.90;99.90;;;;;;5093629;28;20028;-79
2023/10/22 05:27:00;;;;;;;16.65;8.60;;;17.10;99.90;;;;;;5093421;28;20040;-77
2023/10/22 05:29:28;;;;;;;14.60;9.10;;;17.10;99.90;;;;;;5093005;28;20498;-80
2023/10/22 05:31:55;;;;;;;16.73;10.60;;;17.20;99.90;;;;;;5092782;28;20101;-80
2023/10/22 05:34:22;;;;;;;15.80;9.55;;;17.20;99.90;;;;;;5093325;28;20036;-79
2023/10/22 05:36:49;;;;;;;17.08;9.52;;;17.20;99.90;;;;;;5093217;28;20121;-78
2023/10/22 05:39:17;;;;;;;14.60;9.63;;;17.10;99.90;;;;;;5093006;28;20102;-79
2023/10/22 05:41:44;;;;;;;13.55;8.93;;;17.00;99.90;;;;;;5092730;28;20036;-77
2023/10/22 05:44:11;;;;;;;17.45;8.63;;;17.00;99.90;;;;;;5091857;28;20095;-78
2023/10/22 05:46:38;;;;;;;16.35;9.63;;;17.10;99.90;;;;;;5089519;28;20051;-77
2023/10/22 05:49:07;;;;;;;18.95;8.85;;;17.10;99.90;;;;;;5093036;28;20036;-77
2023/10/22 05:51:34;;;;;;;17.00;9.15;;;17.10;99.90;;;;;;5092758;28;20048;-78
2023/10/22 05:54:05;;;;;;;21.35;9.57;;;17.10;99.90;;;;;;5074523;28;20499;-79
2023/10/22 05:56:34;;;;;;;17.13;8.90;;;17.00;99.90;;;;;;5092779;28;20467;-78
2023/10/22 05:59:04;;;;;;;17.88;8.57;;;17.10;99.90;;;;;;5092628;28;20044;-77
2023/10/22 06:01:31;;;;;;;18.35;8.88;;;17.10;99.90;;;;;;5092579;28;20407;-78
2023/10/22 06:03:59;;;;;;;16.50;8.88;;;17.10;99.90;;;;;;5092583;28;20040;-79
2023/10/22 06:06:26;;;;;;;17.08;9.70;;;17.20;99.90;;;;;;5091875;28;20042;-76
2023/10/22 06:08:53;;;;;;;14.40;8.15;;;17.10;99.90;;;;;;5074185;28;20534;-79
2023/10/22 06:11:20;;;;;;;17.15;9.30;;;17.10;99.90;;;;;;5092461;28;20510;-79
2023/10/22 06:13:48;;;;;;;16.08;9.07;;;17.00;99.90;;;;;;5091999;28;20130;-78
2023/10/22 06:16:15;;;;;;;14.48;9.23;;;17.10;99.90;;;;;;5092057;28;20471;-77
2023/10/22 06:18:42;;;;;;;15.10;9.82;;;17.20;99.90;;;;;;5091810;28;20091;-79
2023/10/22 06:21:12;;;;;;;17.92;10.07;;;17.20;99.90;;;;;;5091961;28;20037;-80
2023/10/22 06:23:40;;;;;;;18.95;10.18;;;17.30;99.90;;;;;;5090316;28;20048;-80
2023/10/22 06:26:11;;;;;;;81.22;56.95;;;17.30;99.90;;;;;;5088206;28;20093;-75
2023/10/22 06:28:39;;;;;;;237.02;146.77;;;17.50;99.90;;;;;;5090804;28;20788;-77
2023/10/22 06:31:10;;;;;;;273.00;165.40;;;17.70;99.90;;;;;;5091855;28;20036;-75
2023/10/22 06:33:39;;;;;;;31.05;23.50;;;17.90;99.90;;;;;;5082665;28;20044;-78
2023/10/22 06:36:15;;;;;;;19.55;13.40;;;17.60;99.90;;;;;;5091114;28;20096;-76
2023/10/22 06:38:43;;;;;;;24.00;12.30;;;17.70;99.90;;;;;;5100429;28;20050;-79
2023/10/22 06:41:37;;;;;;;20.35;11.38;;;17.90;99.90;;;;;;5072197;28;20102;-75
2023/10/22 06:44:04;;;;;;;17.67;12.35;;;18.10;99.90;;;;;;5087949;28;20040;-77
2023/10/22 06:46:31;;;;;;;18.08;11.27;;;18.30;99.90;;;;;;5091196;28;20047;-76
2023/10/22 06:48:58;;;;;;;19.58;11.65;;;18.50;99.90;;;;;;5089556;28;20047;-79
2023/10/22 06:51:25;;;;;;;15.38;10.02;;;18.50;99.90;;;;;;5091243;28;20414;-81
2023/10/22 06:54:10;;;;;;;18.60;11.05;;;18.50;99.90;;;;;;5071112;28;20040;-78
2023/10/22 06:56:37;;;;;;;25.20;12.68;;;18.70;99.90;;;;;;5087297;28;20032;-78
2023/10/22 06:59:04;;;;;;;20.85;12.77;;;18.70;99.90;;;;;;5090320;28;20085;-78
2023/10/22 07:01:32;;;;;;;25.13;12.27;;;18.70;99.90;;;;;;5095922;28;20480;-80
2023/10/22 07:03:59;;;;;;;21.50;11.82;;;18.70;99.90;;;;;;5072770;28;20040;-77
2023/10/22 07:06:30;;;;;;;21.00;11.77;;;18.80;99.90;;;;;;5089224;28;20052;-77
2023/10/22 07:08:57;;;;;;;21.83;11.90;;;18.80;99.90;;;;;;5091813;28;20044;-77
2023/10/22 07:11:24;;;;;;;22.00;12.68;;;19.00;99.90;;;;;;5072971;28;20036;-78
2023/10/22 07:13:51;;;;;;;21.27;11.38;;;19.10;99.90;;;;;;5088411;28;20041;-76
2023/10/22 07:16:19;;;;;;;20.95;11.18;;;19.20;99.90;;;;;;5071618;28;20487;-76
2023/10/22 07:18:46;;;;;;;20.42;12.65;;;19.20;99.90;;;;;;5085282;28;20046;-76
2023/10/22 07:21:13;;;;;;;19.25;11.65;;;19.20;99.90;;;;;;5090021;28;20036;-78
2023/10/22 07:23:40;;;;;;;20.08;10.95;;;19.30;99.90;;;;;;5089377;28;20040;-77
2023/10/22 07:26:07;;;;;;;16.58;11.23;;;19.40;99.90;;;;;;5085722;28;20390;-75
2023/10/22 07:28:35;;;;;;;19.45;11.27;;;19.40;99.90;;;;;;5086810;28;20040;-76
2023/10/22 07:31:02;;;;;;;23.02;11.68;;;19.60;99.90;;;;;;5089881;28;20471;-79
2023/10/22 07:33:29;;;;;;;19.13;11.52;;;19.80;99.90;;;;;;5088008;28;20047;-77
2023/10/22 07:36:00;;;;;;;19.55;11.00;;;19.90;99.90;;;;;;5088377;28;20028;-78
2023/10/22 07:38:32;;;;;;;22.05;11.18;;;19.90;99.90;;;;;;5069404;28;20036;-79
2023/10/22 07:41:00;;;;;;;17.45;9.95;;;19.90;99.90;;;;;;5087832;28;20036;-78
2023/10/22 07:43:28;;;;;;;18.08;11.30;;;19.80;99.90;;;;;;5089433;28;20381;-79
2023/10/22 07:46:01;;;;;;;19.38;11.00;;;19.90;99.90;;;;;;5083183;28;20538;-80
2023/10/22 07:48:32;;;;;;;23.60;11.40;;;19.90;99.90;;;;;;5070144;28;20379;-77
2023/10/22 07:51:10;;;;;;;19.65;11.30;;;19.90;99.90;;;;;;5087095;28;20044;-77
2023/10/22 07:53:38;;;;;;;23.77;11.52;;;20.00;99.90;;;;;;5089391;28;20044;-78
2023/10/22 07:56:06;;;;;;;17.15;9.95;;;20.10;99.90;;;;;;5087491;28;20030;-78
2023/10/22 07:58:34;;;;;;;20.05;9.98;;;20.10;99.90;;;;;;5086250;28;20040;-77
2023/10/22 08:01:02;;;;;;;19.98;9.00;;;20.40;99.90;;;;;;5090064;28;20036;-76
2023/10/22 08:03:30;;;;;;;16.90;8.77;;;20.50;99.90;;;;;;5072162;28;20042;-79
2023/10/22 08:05:59;;;;;;;15.68;7.82;;;20.60;99.90;;;;;;5089900;28;20127;-76
2023/10/22 08:08:26;;;;;;;15.85;8.75;;;20.80;99.90;;;;;;5089850;28;20040;-79
2023/10/22 08:10:58;;;;;;;16.73;7.90;;;21.00;99.90;;;;;;5087712;28;20051;-77
2023/10/22 08:13:25;;;;;;;14.18;7.70;;;21.00;99.90;;;;;;5081414;28;20096;-74
2023/10/22 08:15:53;;;;;;;21.45;12.38;;;21.20;99.90;;;;;;5088763;28;20047;-79
2023/10/22 08:18:21;;;;;;;58.35;34.55;;;21.40;99.90;;;;;;5083522;28;20492;-77
2023/10/22 08:20:48;;;;;;;43.55;28.65;;;21.50;99.90;;;;;;5088179;28;20488;-77
2023/10/22 08:23:15;;;;;;;16.17;9.23;;;21.40;99.90;;;;;;5086978;28;20038;-78
2023/10/22 08:25:52;;;;;;;20.63;7.65;;;21.40;99.90;;;;;;5088759;28;20044;-78
2023/10/22 08:28:37;;;;;;;14.43;6.78;;;21.50;99.90;;;;;;5086342;28;20058;-76
2023/10/22 08:31:22;;;;;;;11.95;6.55;;;21.40;99.90;;;;;;5086614;28;20020;-78
2023/10/22 08:33:49;;;;;;;13.07;6.63;;;21.70;99.90;;;;;;5068018;28;20039;-78
2023/10/22 08:36:35;;;;;;;12.13;6.63;;;21.90;99.90;;;;;;5086183;28;20036;-78
2023/10/22 08:39:02;;;;;;;12.45;6.35;;;22.00;99.90;;;;;;5070812;28;20050;-77
2023/10/22 08:41:37;;;;;;;13.45;6.25;;;22.20;99.90;;;;;;5088830;28;20527;-79
2023/10/22 08:44:06;;;;;;;17.52;5.18;;;22.30;99.90;;;;;;5082758;28;20066;-80
2023/10/22 08:46:34;;;;;;;19.17;6.65;;;22.20;99.90;;;;;;5071447;28;20036;-79
2023/10/22 08:49:06;;;;;;;11.07;4.82;;;22.30;99.90;;;;;;5082603;28;20039;-80
2023/10/22 08:51:34;;;;;;;13.85;5.75;;;22.40;99.90;;;;;;5088690;28;20044;-79
2023/10/22 08:54:03;;;;;;;14.80;5.43;;;22.50;99.90;;;;;;5089014;28;20039;-79
2023/10/22 08:56:32;;;;;;;15.65;5.50;;;22.80;99.90;;;;;;5085758;28;20051;-81
2023/10/22 08:59:02;;;;;;;15.45;5.30;;;22.90;99.90;;;;;;5083741;28;20037;-79
2023/10/22 09:01:29;;;;;;;13.50;4.88;;;23.00;99.90;;;;;;5087930;28;20127;-81
2023/10/22 09:03:57;;;;;;;12.57;5.20;;;22.90;99.90;;;;;;5070658;28;20471;-78
2023/10/22 09:06:24;;;;;;;93.10;59.22;;;22.90;99.90;;;;;;5084668;28;20483;-80
2023/10/22 09:08:52;;;;;;;54.53;36.78;;;23.10;99.90;;;;;;5084228;28;20048;-79
2023/10/22 09:11:20;;;;;;;22.73;13.18;;;23.20;99.90;;;;;;5085201;28;20043;-81
2023/10/22 09:13:48;;;;;;;14.45;6.38;;;23.10;99.90;;;;;;5085070;28;20066;-81
2023/10/22 09:16:32;;;;;;;14.07;4.70;;;23.20;99.90;;;;;;5070383;28;20036;-77
2023/10/22 09:19:01;;;;;;;17.13;5.63;;;23.40;99.90;;;;;;5085390;28;20044;-75
2023/10/22 09:21:49;;;;;;;12.47;5.40;;;23.60;99.90;;;;;;5088349;28;20059;-78
2023/10/22 09:24:16;;;;;;;9.70;4.95;;;23.80;99.90;;;;;;5087576;28;20122;-76
2023/10/22 09:26:47;;;;;;;10.27;4.82;;;23.90;99.90;;;;;;5087013;28;20043;-75
2023/10/22 09:29:16;;;;;;;11.52;5.18;;;24.10;99.90;;;;;;5066075;28;20052;-77
2023/10/22 09:31:54;;;;;;;12.27;4.70;;;24.20;99.90;;;;;;5087277;28;20055;-76
2023/10/22 09:34:31;;;;;;;14.55;5.40;;;24.20;99.90;;;;;;5086203;28;20048;-77
2023/10/22 09:36:59;;;;;;;10.93;4.80;;;23.70;99.90;;;;;;5087445;28;20476;-79
2023/10/22 09:39:40;;;;;;;12.63;4.65;;;23.40;99.90;;;;;;5083311;28;20143;-79
2023/10/22 09:42:08;;;;;;;12.82;6.05;;;23.50;99.90;;;;;;5064639;28;20036;-77
2023/10/22 09:44:44;;;;;;;12.48;5.25;;;23.90;99.90;;;;;;5085153;28;20059;-79
2023/10/22 09:47:21;;;;;;;14.88;5.00;;;24.10;99.90;;;;;;5078251;28;20060;-80
2023/10/22 09:49:53;;;;;;;11.20;5.10;;;24.40;99.90;;;;;;5085171;28;20108;-78
2023/10/22 09:52:22;;;;;;;12.45;4.82;;;24.70;99.90;;;;;;5087862;28;20119;-78
2023/10/22 09:54:54;;;;;;;13.97;4.90;;;24.70;99.90;;;;;;5086157;28;20036;-78
2023/10/22 09:57:31;;;;;;;20.60;5.10;;;24.60;99.90;;;;;;5079492;28;20056;-75
2023/10/22 10:00:01;;;;;;;18.70;4.70;;;24.70;99.90;;;;;;5080845;28;20055;-78
2023/10/22 10:02:29;;;;;;;12.48;4.22;;;24.80;99.50;;;;;;5086821;28;20028;-81
2023/10/22 10:04:57;;;;;;;15.82;5.53;;;24.90;99.20;;;;;;5069272;28;20132;-78
2023/10/22 10:07:25;;;;;;;17.05;7.53;;;25.30;99.70;;;;;;5080838;28;20028;-79
2023/10/22 10:09:55;;;;;;;12.63;4.88;;;25.40;99.70;;;;;;5065110;28;20071;-79
2023/10/22 10:12:25;;;;;;;10.98;4.68;;;25.60;98.10;;;;;;5082364;28;20039;-76
2023/10/22 10:14:52;;;;;;;11.43;4.57;;;25.00;99.40;;;;;;5071426;28;20120;-79
2023/10/22 10:17:20;;;;;;;12.70;5.72;;;24.90;98.90;;;;;;5084276;28;20484;-79
2023/10/22 10:19:47;;;;;;;14.65;5.90;;;24.90;99.50;;;;;;5089149;28;20039;-78
2023/10/22 10:22:38;;;;;;;10.48;4.53;;;24.90;98.80;;;;;;5089602;28;20047;-78
2023/10/22 10:25:30;;;;;;;14.02;5.88;;;25.10;98.80;;;;;;5084068;28;20032;-77
2023/10/22 10:28:09;;;;;;;42.05;30.05;;;25.40;97.90;;;;;;5091550;28;20116;-79
2023/10/22 10:31:27;;;;;;;20.17;11.45;;;25.60;97.60;;;;;;5087162;28;20051;-78
2023/10/22 10:34:01;;;;;;;15.57;7.70;;;25.90;97.50;;;;;;5064570;28;20040;-78
2023/10/22 10:36:29;;;;;;;15.63;5.28;;;26.00;96.80;;;;;;5087314;28;20043;-77
2023/10/22 10:39:39;;;;;;;11.45;5.15;;;26.00;96.20;;;;;;5085432;28;20522;-81
2023/10/22 10:42:31;;;;;;;16.25;4.78;;;25.80;95.50;;;;;;5087245;28;20051;-81
2023/10/22 10:44:58;;;;;;;18.15;5.00;;;25.80;95.80;;;;;;5066714;28;20061;-77
2023/10/22 10:47:27;;;;;;;11.57;5.43;;;25.70;96.30;;;;;;5082770;28;20033;-78
2023/10/22 10:50:05;;;;;;;16.27;5.30;;;25.70;95.80;;;;;;5084394;28;20509;-80
2023/10/22 10:52:52;;;;;;;14.98;5.18;;;25.80;96.10;;;;;;5088527;28;20027;-76
2023/10/22 10:55:19;;;;;;;16.02;5.25;;;26.00;95.00;;;;;;5085231;28;20118;-76
2023/10/22 10:57:50;;;;;;;11.63;4.75;;;26.30;95.50;;;;;;5089474;28;20048;-80
2023/10/22 11:00:30;;;;;;;14.75;4.28;;;26.20;95.00;;;;;;5090077;28;20089;-80
2023/10/22 11:03:02;;;;;;;18.48;5.90;;;26.30;94.70;;;;;;5094877;28;20423;-82
2023/10/22 11:05:38;;;;;;;14.02;5.00;;;26.40;95.00;;;;;;5090845;28;20036;-82
2023/10/22 11:08:18;;;;;;;15.55;5.35;;;26.80;94.40;;;;;;5091535;28;20468;-79
2023/10/22 11:10:45;;;;;;;14.70;4.70;;;26.90;93.90;;;;;;5087709;28;20036;-82
2023/10/22 11:13:13;;;;;;;15.68;4.30;;;26.80;94.50;;;;;;5088862;28;20036;-80
2023/10/22 11:15:41;;;;;;;15.63;6.05;;;27.30;92.80;;;;;;5085791;28;20122;-78
2023/10/22 11:18:11;;;;;;;16.98;6.72;;;27.60;93.60;;;;;;5083845;28;20491;-82
2023/10/22 11:20:39;;;;;;;26.88;14.13;;;27.70;91.80;;;;;;5072813;28;20032;-80
2023/10/22 11:23:18;;;;;;;17.48;6.07;;;27.30;91.30;;;;;;5087396;28;20064;-79
2023/10/22 11:25:46;;;;;;;13.43;5.28;;;27.60;93.00;;;;;;5083584;28;20028;-79
2023/10/22 11:28:15;;;;;;;13.23;4.82;;;28.20;91.80;;;;;;5087429;28;20063;-80
2023/10/22 11:30:42;;;;;;;13.38;4.70;;;31.00;87.90;;;;;;5093664;28;20143;-78
2023/10/22 11:33:26;;;;;;;17.83;4.75;;;32.10;80.50;;;;;;5084181;28;20113;-83
2023/10/22 11:35:55;;;;;;;12.20;4.43;;;32.20;75.40;;;;;;5087188;28;20032;-78
2023/10/22 11:38:23;;;;;;;14.05;4.78;;;33.60;73.80;;;;;;5069708;28;20440;-78
2023/10/22 11:41:03;;;;;;;13.30;4.28;;;33.00;75.00;;;;;;5085760;28;20040;-78
2023/10/22 11:43:31;;;;;;;17.42;6.10;;;33.60;72.10;;;;;;5052925;28;20056;-79
2023/10/22 11:45:58;;;;;;;16.00;6.05;;;33.00;72.10;;;;;;5085044;28;20101;-82
2023/10/22 11:48:27;;;;;;;15.70;5.18;;;33.00;69.70;;;;;;5059938;28;20037;-78
2023/10/22 11:51:01;;;;;;;16.73;4.57;;;33.10;71.30;;;;;;5079645;28;20040;-79
2023/10/22 11:53:41;;;;;;;39.75;27.67;;;32.10;70.60;;;;;;5081391;28;20565;-78
2023/10/22 11:56:12;;;;;;;20.02;9.45;;;29.90;75.80;;;;;;5080801;28;20533;-77
2023/10/22 11:58:39;;;;;;;13.30;4.93;;;29.30;78.40;;;;;;5081057;28;20072;-79
2023/10/22 12:01:06;;;;;;;17.80;5.15;;;28.90;79.60;;;;;;5086716;28;20044;-79
2023/10/22 12:03:33;;;;;;;12.20;4.80;;;28.90;77.50;;;;;;5086578;28;20046;-81
2023/10/22 12:06:01;;;;;;;21.02;8.02;;;28.80;77.20;;;;;;5070787;28;20044;-79
2023/10/22 12:08:28;;;;;;;16.13;5.75;;;29.10;78.80;;;;;;5082444;28;20047;-79
2023/10/22 12:10:56;;;;;;;17.85;5.07;;;29.00;76.60;;;;;;5081404;28;20479;-77
2023/10/22 12:13:24;;;;;;;17.55;6.05;;;28.70;77.80;;;;;;5080496;28;20047;-78
2023/10/22 12:15:51;;;;;;;19.40;4.93;;;28.70;78.00;;;;;;5081968;28;20036;-78
2023/10/22 12:18:18;;;;;;;14.13;4.70;;;28.80;76.70;;;;;;5080947;28;20085;-81
2023/10/22 12:20:46;;;;;;;18.58;4.60;;;29.30;76.90;;;;;;5085018;28;20047;-80
2023/10/22 12:23:13;;;;;;;14.23;4.40;;;29.60;76.10;;;;;;5077580;28;20424;-80
2023/10/22 12:25:40;;;;;;;16.73;5.70;;;29.80;76.90;;;;;;5068594;28;20411;-79
2023/10/22 12:28:07;;;;;;;20.42;4.38;;;30.00;76.30;;;;;;5053121;28;20036;-78
2023/10/22 12:30:36;;;;;;;14.90;5.55;;;30.20;75.90;;;;;;5064285;28;20074;-79
2023/10/22 12:33:05;;;;;;;14.85;4.75;;;31.90;73.10;;;;;;5079385;28;20081;-80
2023/10/22 12:35:40;;;;;;;26.40;5.68;;;32.70;69.00;;;;;;5067936;28;20048;-79
2023/10/22 12:38:07;;;;;;;12.90;3.88;;;33.50;68.50;;;;;;5084030;28;20582;-79
2023/10/22 12:40:37;;;;;;;17.23;4.32;;;34.50;66.40;;;;;;5084184;28;20487;-80
2023/10/22 12:43:06;;;;;;;16.92;4.85;;;34.60;65.20;;;;;;5083616;28;20126;-80
2023/10/22 12:45:40;;;;;;;14.77;5.32;;;34.50;64.80;;;;;;5076408;28;20040;-78
2023/10/22 12:48:07;;;;;;;17.35;4.85;;;33.80;65.10;;;;;;5080186;28;20107;-78
2023/10/22 12:50:35;;;;;;;18.88;4.90;;;34.00;65.20;;;;;;5063456;28;20717;-79